createdAt,value
2022-09-25T00:00:04.421Z,8.40
2022-09-25T04:02:54.757Z,9.00
2022-09-25T04:05:24.138Z,9.00
2022-09-25T04:07:53.503Z,9.60
2022-09-25T04:10:22.603Z,9.70
2022-09-25T04:12:55.189Z,9.10
2022-09-25T04:15:24.683Z,9.30
2022-09-25T04:17:53.765Z,8.80
2022-09-25T04:20:22.710Z,9.50
2022-09-25T04:22:51.852Z,9.70
2022-09-25T04:25:26.223Z,9.50
2022-09-25T04:27:56.827Z,9.60
2022-09-25T04:30:27.808Z,10.10
2022-09-25T04:33:15.635Z,9.10
2022-09-25T04:35:45.260Z,9.60
2022-09-25T04:38:14.405Z,9.90
2022-09-25T04:40:46.739Z,10.90
2022-09-25T04:43:15.925Z,10.90
2022-09-25T04:45:47.952Z,11.00
2022-09-25T04:48:17.199Z,12.70
2022-09-25T04:50:52.357Z,11.60
2022-09-25T04:53:22.084Z,11.20
2022-09-25T04:55:52.366Z,11.10
2022-09-25T04:58:22.578Z,11.50
2022-09-25T05:00:52.028Z,11.30
2022-09-25T05:03:21.416Z,10.70
2022-09-25T05:05:50.990Z,10.80
2022-09-25T05:08:20.745Z,10.70
2022-09-25T05:10:49.846Z,11.00
2022-09-25T05:13:19.269Z,11.10
2022-09-25T05:15:48.558Z,10.60
2022-09-25T05:18:23.753Z,11.20
2022-09-25T05:20:57.342Z,10.60
2022-09-25T05:25:58.871Z,10.90
2022-09-25T05:28:32.132Z,10.50
2022-09-25T05:31:06.006Z,10.60
2022-09-25T05:33:36.208Z,10.30
2022-09-25T05:36:07.552Z,10.10
2022-09-25T05:38:41.296Z,11.20
2022-09-25T05:41:11.454Z,11.20
2022-09-25T05:43:43.595Z,11.20
2022-09-25T05:46:12.907Z,10.40
2022-09-25T05:48:41.924Z,10.10
2022-09-25T05:51:11.796Z,10.40
2022-09-25T05:53:41.327Z,9.80
2022-09-25T05:56:10.953Z,10.20
2022-09-25T05:58:39.961Z,9.70
2022-09-25T06:01:08.445Z,11.80
2022-09-25T06:03:37.212Z,12.60
2022-09-25T06:06:06.966Z,12.20
2022-09-25T06:08:36.044Z,12.90
2022-09-25T06:11:06.232Z,13.90
2022-09-25T06:13:37.211Z,13.30
2022-09-25T06:16:13.834Z,13.70
2022-09-25T06:18:42.930Z,14.80
2022-09-25T06:21:12.464Z,15.60
2022-09-25T06:23:44.520Z,13.60
2022-09-25T06:26:15.059Z,10.50
2022-09-25T06:28:43.769Z,11.00
2022-09-25T06:31:12.677Z,12.50
2022-09-25T06:33:42.762Z,12.50
2022-09-25T06:36:11.226Z,10.40
2022-09-25T06:38:40.009Z,12.00
2022-09-25T06:41:09.399Z,12.30
2022-09-25T06:43:38.128Z,13.10
2022-09-25T06:46:07.451Z,10.70
2022-09-25T06:48:36.054Z,11.70
2022-09-25T06:51:05.460Z,12.30
2022-09-25T06:53:35.693Z,13.00
2022-09-25T06:56:05.112Z,13.70
2022-09-25T06:58:36.707Z,13.20
2022-09-25T07:01:11.288Z,14.30
2022-09-25T07:03:47.892Z,13.80
2022-09-25T07:06:21.341Z,12.90
2022-09-25T07:08:52.621Z,11.50
2022-09-25T07:11:28.795Z,10.70
2022-09-25T07:13:58.358Z,10.10
2022-09-25T07:16:30.522Z,10.60
2022-09-25T07:19:04.971Z,10.60
2022-09-25T07:21:34.232Z,10.00
2022-09-25T07:24:03.732Z,10.40
2022-09-25T07:26:36.216Z,10.70
2022-09-25T07:29:09.532Z,9.50
2022-09-25T07:31:38.911Z,9.90
2022-09-25T07:34:12.264Z,10.30
2022-09-25T07:36:44.395Z,9.80
2022-09-25T07:39:18.162Z,10.70
2022-09-25T07:41:48.269Z,10.80
2022-09-25T07:44:28.650Z,10.90
2022-09-25T07:47:01.399Z,11.20
2022-09-25T07:49:32.396Z,10.50
2022-09-25T07:52:07.317Z,9.80
2022-09-25T07:54:37.968Z,11.00
2022-09-25T07:57:15.987Z,10.20
2022-09-25T07:59:46.126Z,9.60
2022-09-25T08:02:15.409Z,9.70
2022-09-25T08:04:44.859Z,9.80
2022-09-25T08:07:14.224Z,10.00
2022-09-25T08:09:43.595Z,10.10
2022-09-25T08:12:13.877Z,9.90
2022-09-25T08:14:45.553Z,9.40
2022-09-25T08:17:14.061Z,11.40
2022-09-25T08:19:43.161Z,11.80
2022-09-25T08:22:13.619Z,10.70
2022-09-25T08:24:42.425Z,10.10
2022-09-25T08:27:10.985Z,10.50
2022-09-25T08:29:40.995Z,11.10
2022-09-25T08:32:10.716Z,11.00
2022-09-25T08:34:41.361Z,10.80
2022-09-25T08:37:11.317Z,10.20
2022-09-25T08:39:40.588Z,10.80
2022-09-25T08:42:34.289Z,10.30
2022-09-25T08:45:27.669Z,10.20
2022-09-25T08:48:18.702Z,8.70
2022-09-25T08:50:49.967Z,9.40
2022-09-25T08:53:25.575Z,8.80
2022-09-25T08:56:12.780Z,8.60
2022-09-25T08:58:52.656Z,8.70
2022-09-25T09:01:32.763Z,9.20
2022-09-25T09:04:22.547Z,8.00
2022-09-25T09:07:25.069Z,9.40
2022-09-25T09:09:56.313Z,8.70
2022-09-25T09:12:38.487Z,8.30
2022-09-25T09:15:29.529Z,9.70
2022-09-25T09:18:02.019Z,8.10
2022-09-25T09:20:44.908Z,7.30
2022-09-25T09:23:19.397Z,9.00
2022-09-25T09:26:17.857Z,7.90
2022-09-25T09:29:04.852Z,9.00
2022-09-25T09:31:57.449Z,8.50
2022-09-25T09:35:04.603Z,9.00
2022-09-25T09:37:46.477Z,12.70
2022-09-25T09:40:59.004Z,11.20
2022-09-25T09:43:38.505Z,9.40
2022-09-25T09:46:25.325Z,10.40
2022-09-25T09:49:19.432Z,11.10
2022-09-25T09:52:12.055Z,11.20
2022-09-25T09:54:56.972Z,10.30
2022-09-25T09:57:33.734Z,10.10
2022-09-25T10:00:15.879Z,9.10
2022-09-25T10:02:52.285Z,10.40
2022-09-25T10:05:40.620Z,10.00
2022-09-25T10:08:13.573Z,10.40
2022-09-25T10:10:46.287Z,9.50
2022-09-25T10:13:21.260Z,10.10
2022-09-25T10:15:56.829Z,10.60
2022-09-25T10:18:32.475Z,10.90
2022-09-25T10:21:19.544Z,7.80
2022-09-25T10:23:56.620Z,8.00
2022-09-25T10:26:38.608Z,7.60
2022-09-25T10:29:11.225Z,9.20
2022-09-25T10:31:42.303Z,9.00
2022-09-25T10:34:14.576Z,7.90
2022-09-25T10:36:50.392Z,10.90
2022-09-25T10:39:50.566Z,10.50
2022-09-25T10:42:42.379Z,10.60
2022-09-25T10:45:31.841Z,11.40
2022-09-25T10:48:20.072Z,9.30
2022-09-25T10:51:08.849Z,9.80
2022-09-25T10:53:38.089Z,8.70
2022-09-25T10:56:13.420Z,9.90
2022-09-25T10:58:48.231Z,10.70
2022-09-25T11:01:18.941Z,10.80
2022-09-25T11:03:55.817Z,9.30
2022-09-25T11:06:30.976Z,10.30
2022-09-25T11:09:24.221Z,8.70
2022-09-25T11:12:05.125Z,6.40
2022-09-25T11:14:37.230Z,8.40
2022-09-25T11:17:42.961Z,7.10
2022-09-25T11:20:18.396Z,8.60
2022-09-25T11:22:58.750Z,6.90
2022-09-25T11:25:34.160Z,9.20
2022-09-25T11:28:14.221Z,8.20
2022-09-25T11:31:03.045Z,7.70
2022-09-25T11:33:42.862Z,8.80
2022-09-25T11:36:39.427Z,8.80
2022-09-25T11:39:43.897Z,8.80
2022-09-25T11:42:32.113Z,9.30
2022-09-25T11:45:11.214Z,8.40
2022-09-25T11:47:54.386Z,7.60
2022-09-25T11:50:36.376Z,8.50
2022-09-25T11:53:33.919Z,9.90
2022-09-25T11:56:32.796Z,10.20
2022-09-25T11:59:42.709Z,8.10
2022-09-25T12:02:30.241Z,7.70
2022-09-25T12:05:22.858Z,6.40
2022-09-25T12:08:10.445Z,13.60
2022-09-25T12:10:47.331Z,10.60
2022-09-25T12:13:44.851Z,33.20
2022-09-25T12:16:40.639Z,12.00
2022-09-25T12:19:31.760Z,9.30
2022-09-25T12:22:27.957Z,8.70
2022-09-25T12:25:09.844Z,8.40
2022-09-25T12:27:48.467Z,8.70
2022-09-25T12:30:22.121Z,8.80
2022-09-25T12:32:54.205Z,9.00
2022-09-25T12:36:09.698Z,12.20
2022-09-25T12:38:56.408Z,12.90
2022-09-25T12:42:05.749Z,10.60
2022-09-25T12:44:54.322Z,7.70
2022-09-25T12:47:38.108Z,7.60
2022-09-25T12:50:17.596Z,9.60
2022-09-25T12:52:53.086Z,16.20
2022-09-25T12:55:32.427Z,19.00
2022-09-25T12:58:19.063Z,9.90
2022-09-25T13:00:56.891Z,13.30
2022-09-25T13:03:36.464Z,14.20
2022-09-25T13:06:15.097Z,15.70
2022-09-25T13:09:02.497Z,13.80
2022-09-25T13:11:51.640Z,9.60
2022-09-25T13:14:29.486Z,12.70
2022-09-25T13:16:58.872Z,11.00
2022-09-25T13:19:32.415Z,9.10
2022-09-25T13:22:11.007Z,11.00
2022-09-25T13:24:58.566Z,11.00
2022-09-25T13:27:38.624Z,10.60
2022-09-25T13:30:20.628Z,11.80
2022-09-25T13:32:52.341Z,10.40
2022-09-25T13:35:25.037Z,8.90
2022-09-25T13:37:57.725Z,5.90
2022-09-25T13:40:45.821Z,8.90
2022-09-25T13:43:42.194Z,8.40
2022-09-25T13:46:22.664Z,10.70
2022-09-25T13:48:53.472Z,10.30
2022-09-25T13:51:22.021Z,10.60
2022-09-25T13:54:00.920Z,10.40
2022-09-25T13:56:48.899Z,9.40
2022-09-25T13:59:19.907Z,10.30
2022-09-25T14:01:55.612Z,9.00
2022-09-25T14:04:49.462Z,10.70
2022-09-25T14:07:26.167Z,12.90
2022-09-25T14:09:58.194Z,12.80
2022-09-25T14:12:56.823Z,13.90
2022-09-25T14:15:37.689Z,17.10
2022-09-25T14:18:27.381Z,21.00
2022-09-25T14:21:01.573Z,22.10
2022-09-25T14:23:33.764Z,24.70
2022-09-25T14:26:09.536Z,24.30
2022-09-25T14:28:46.300Z,22.20
2022-09-25T14:31:44.443Z,26.00
2022-09-25T14:34:26.962Z,28.20
2022-09-25T14:37:18.574Z,33.90
2022-09-25T14:39:48.655Z,30.40
2022-09-25T14:42:57.336Z,28.40
2022-09-25T14:45:34.456Z,26.40
2022-09-25T14:48:10.881Z,29.50
2022-09-25T14:50:49.859Z,27.40
2022-09-25T14:53:33.787Z,29.70
2022-09-25T14:56:05.904Z,31.20
2022-09-25T14:58:37.899Z,27.70
2022-09-25T15:01:33.525Z,26.50
2022-09-25T15:04:09.791Z,24.60
2022-09-25T15:06:40.974Z,25.20
2022-09-25T15:09:31.206Z,23.00
2022-09-25T15:12:01.203Z,21.30
2022-09-25T15:14:29.689Z,21.10
2022-09-25T15:17:16.830Z,22.60
2022-09-25T15:19:46.266Z,21.80
2022-09-25T15:22:22.805Z,20.90
2022-09-25T15:24:56.271Z,20.60
2022-09-25T15:29:57.266Z,27.40
2022-09-25T15:32:31.439Z,25.60
2022-09-25T15:35:06.863Z,41.60
2022-09-25T15:37:36.039Z,87.00
2022-09-25T15:40:31.407Z,34.40
2022-09-25T15:43:02.372Z,27.00
2022-09-25T15:45:55.427Z,250.90
2022-09-25T15:48:33.070Z,237.40
2022-09-25T15:51:22.875Z,199.30
2022-09-25T15:54:00.346Z,181.20
2022-09-25T15:56:45.834Z,80.10
2022-09-25T15:59:23.384Z,125.90
2022-09-25T16:02:12.457Z,168.60
2022-09-25T16:04:53.124Z,110.50
2022-09-25T16:07:25.165Z,82.50
2022-09-25T16:09:57.895Z,72.80
2022-09-25T16:12:27.358Z,47.50
2022-09-25T16:14:58.562Z,99.00
2022-09-25T16:17:42.110Z,115.80
2022-09-25T16:20:31.306Z,120.20
2022-09-25T16:23:05.185Z,116.30
2022-09-25T16:25:38.367Z,123.60
2022-09-25T16:28:20.246Z,97.20
2022-09-25T16:31:06.312Z,117.80
2022-09-25T16:33:39.224Z,122.80
2022-09-25T16:36:17.961Z,142.70
2022-09-25T16:39:13.064Z,124.90
2022-09-25T16:41:51.935Z,73.70
2022-09-25T16:44:48.358Z,56.00
2022-09-25T16:47:20.470Z,53.70
2022-09-25T16:49:50.120Z,48.80
2022-09-25T16:52:24.559Z,47.40
2022-09-25T16:54:57.401Z,48.10
2022-09-25T16:57:32.817Z,43.80
2022-09-25T17:00:02.040Z,39.50
2022-09-25T17:02:37.337Z,34.90
2022-09-25T17:05:19.897Z,33.70
2022-09-25T17:07:50.907Z,35.00
2022-09-25T17:10:26.928Z,41.10
2022-09-25T17:12:59.480Z,40.10
2022-09-25T17:15:35.016Z,38.80
2022-09-25T17:18:12.574Z,59.10
2022-09-25T17:20:41.741Z,96.20
2022-09-25T17:23:11.339Z,103.80
2022-09-25T17:26:01.044Z,110.00
2022-09-25T17:28:30.489Z,108.50
2022-09-25T17:31:01.330Z,124.90
2022-09-25T17:33:32.641Z,126.90
2022-09-25T17:36:04.714Z,102.10
2022-09-25T17:38:34.493Z,80.30
2022-09-25T17:41:15.245Z,88.20
2022-09-25T17:43:44.086Z,83.40
2022-09-25T17:46:16.895Z,75.50
2022-09-25T17:48:51.630Z,119.30
2022-09-25T17:51:26.495Z,110.40
2022-09-25T17:53:57.278Z,102.70
2022-09-25T17:56:30.933Z,106.70
2022-09-25T17:59:00.886Z,96.40
2022-09-25T18:01:36.740Z,149.20
2022-09-25T18:04:23.872Z,123.90
2022-09-25T18:06:53.165Z,111.30
2022-09-25T18:09:22.195Z,196.60
2022-09-25T18:11:52.149Z,121.80
2022-09-25T18:14:21.143Z,92.80
2022-09-25T18:16:49.939Z,71.60
2022-09-25T18:19:39.468Z,77.00
2022-09-25T18:22:20.641Z,51.10
2022-09-25T18:24:57.311Z,45.00
2022-09-25T18:27:33.575Z,36.30
2022-09-25T18:30:02.563Z,26.40
2022-09-25T18:32:33.768Z,29.50
2022-09-25T18:35:03.501Z,37.00
2022-09-25T18:37:32.163Z,28.30
2022-09-25T18:40:01.140Z,23.40
2022-09-25T18:42:30.343Z,22.50
2022-09-25T18:44:58.942Z,20.90
2022-09-25T18:47:27.941Z,27.20
2022-09-25T18:49:56.481Z,27.10
2022-09-25T18:52:25.255Z,27.70
2022-09-25T18:54:53.934Z,25.50
2022-09-25T18:57:22.639Z,25.20
2022-09-25T18:59:51.054Z,26.00
2022-09-25T19:02:23.299Z,35.30
2022-09-25T19:04:55.417Z,29.30
2022-09-25T19:07:26.957Z,29.50
2022-09-25T19:09:58.656Z,30.20
2022-09-25T19:12:28.158Z,30.70
2022-09-25T19:14:57.307Z,28.80
2022-09-25T19:17:26.966Z,27.40
2022-09-25T19:19:55.561Z,24.40
2022-09-25T19:22:25.203Z,26.20
2022-09-25T19:24:54.980Z,23.40
2022-09-25T19:27:26.211Z,23.00
2022-09-25T19:29:55.498Z,23.70
2022-09-25T19:32:25.453Z,74.60
2022-09-25T19:34:55.179Z,42.10
2022-09-25T19:37:28.391Z,31.00
2022-09-25T19:40:17.624Z,34.70
2022-09-25T19:42:48.239Z,23.80
2022-09-25T19:45:18.940Z,27.90
2022-09-25T19:47:47.965Z,28.50
2022-09-25T19:50:19.030Z,43.40
2022-09-25T19:52:51.098Z,54.00
2022-09-25T19:55:20.038Z,98.90
2022-09-25T19:57:49.174Z,59.50
2022-09-25T20:00:18.598Z,70.90
2022-09-25T20:02:48.215Z,74.10
2022-09-25T20:05:18.515Z,49.90
2022-09-25T20:07:47.954Z,44.30
2022-09-25T20:10:17.385Z,35.20
2022-09-25T20:12:46.549Z,25.10
2022-09-25T20:15:15.271Z,22.20
2022-09-25T20:17:45.148Z,31.10
2022-09-25T20:20:15.823Z,23.20
2022-09-25T20:22:45.340Z,50.90
2022-09-25T20:25:14.011Z,81.80
2022-09-25T20:27:43.536Z,25.90
2022-09-25T20:30:13.855Z,39.20
2022-09-25T20:32:43.106Z,28.00
2022-09-25T20:35:12.838Z,16.20
2022-09-25T20:37:47.076Z,17.80
2022-09-25T20:40:16.453Z,16.40
2022-09-25T20:42:45.865Z,14.20
2022-09-25T20:45:15.105Z,17.40
2022-09-25T20:47:46.462Z,21.80
2022-09-25T20:50:16.540Z,29.30
2022-09-25T20:52:45.866Z,43.30
2022-09-25T20:55:15.067Z,54.90
2022-09-25T20:57:44.567Z,49.00
2022-09-25T21:00:18.381Z,61.80
2022-09-25T21:02:49.158Z,65.30
2022-09-25T21:05:18.400Z,47.60
2022-09-25T21:07:47.742Z,42.80
2022-09-25T21:10:16.872Z,32.60
2022-09-25T21:12:46.164Z,29.80
2022-09-25T21:15:15.745Z,30.20
2022-09-25T21:17:45.190Z,27.40
2022-09-25T21:20:14.645Z,27.30
2022-09-25T21:22:44.026Z,37.60
2022-09-25T21:25:13.313Z,39.80
2022-09-25T21:27:42.541Z,39.40
2022-09-25T21:30:12.260Z,44.80
2022-09-25T21:32:42.086Z,52.80
2022-09-25T21:35:11.843Z,54.40
2022-09-25T21:37:41.086Z,54.80
2022-09-25T21:40:10.351Z,54.50
2022-09-25T21:42:39.761Z,51.90
2022-09-25T21:45:09.939Z,53.60
2022-09-25T21:47:39.188Z,48.00
2022-09-25T21:50:08.833Z,51.50
2022-09-25T21:52:40.443Z,60.70
2022-09-25T21:55:10.810Z,63.60
2022-09-25T21:57:39.996Z,71.60
2022-09-25T22:00:10.831Z,78.50
2022-09-25T22:02:41.064Z,74.00
2022-09-25T22:05:12.574Z,72.00
2022-09-25T22:07:43.078Z,61.00
2022-09-25T22:10:12.522Z,68.50
2022-09-25T22:12:42.167Z,78.00
2022-09-25T22:15:13.427Z,87.80
2022-09-25T22:17:42.542Z,84.40
2022-09-25T22:20:12.597Z,87.70
2022-09-25T22:22:41.857Z,68.10
2022-09-25T22:25:11.161Z,66.30
2022-09-25T22:27:40.418Z,58.80
2022-09-25T22:30:10.651Z,52.30
2022-09-25T22:32:39.452Z,51.60
2022-09-25T22:35:09.181Z,52.10
2022-09-25T22:37:38.444Z,49.70
2022-09-25T22:40:08.474Z,34.80
2022-09-25T22:42:37.747Z,39.20
2022-09-25T22:45:07.568Z,40.60
2022-09-25T22:47:36.848Z,51.00
2022-09-25T22:50:06.762Z,46.50
2022-09-25T22:52:36.694Z,46.40
2022-09-25T22:55:06.056Z,45.10
2022-09-25T22:57:39.487Z,45.30
2022-09-25T23:00:10.637Z,31.10
